createdAt,value
2017-06-28T00:00:15.140Z,21.88
2017-06-28T00:02:42.681Z,21.85
2017-06-28T00:05:10.195Z,21.89
2017-06-28T00:07:37.767Z,21.85
2017-06-28T00:10:05.311Z,21.85
2017-06-28T00:12:32.887Z,21.89
2017-06-28T00:15:00.420Z,21.92
2017-06-28T00:17:28.079Z,22.00
2017-06-28T00:19:55.604Z,21.87
2017-06-28T00:22:23.107Z,21.78
2017-06-28T00:24:50.732Z,21.79
2017-06-28T00:27:18.339Z,21.75
2017-06-28T00:29:45.884Z,21.78
2017-06-28T00:32:13.434Z,21.76
2017-06-28T00:34:40.943Z,21.73
2017-06-28T00:37:08.475Z,21.72
2017-06-28T00:39:35.997Z,21.72
2017-06-28T00:42:03.539Z,21.77
2017-06-28T00:44:31.051Z,21.66
2017-06-28T00:46:58.600Z,21.64
2017-06-28T00:49:26.119Z,21.71
2017-06-28T00:51:53.673Z,21.75
2017-06-28T00:54:21.206Z,21.62
2017-06-28T00:56:48.764Z,21.59
2017-06-28T00:59:16.299Z,21.55
2017-06-28T01:01:43.810Z,21.66
2017-06-28T01:04:11.387Z,21.68
2017-06-28T01:06:38.939Z,21.71
2017-06-28T01:09:06.575Z,21.76
2017-06-28T01:11:34.089Z,21.76
2017-06-28T01:14:01.595Z,21.73
2017-06-28T01:16:29.142Z,21.68
2017-06-28T01:18:56.647Z,21.75
2017-06-28T01:21:24.219Z,21.62
2017-06-28T01:23:51.734Z,21.68
2017-06-28T01:26:19.275Z,21.62
2017-06-28T01:28:46.787Z,21.59
2017-06-28T01:31:14.315Z,21.60
2017-06-28T01:33:41.831Z,21.59
2017-06-28T01:36:09.392Z,21.64
2017-06-28T01:38:36.882Z,21.65
2017-06-28T01:41:04.401Z,21.52
2017-06-28T01:43:31.951Z,21.54
2017-06-28T01:45:59.471Z,21.49
2017-06-28T01:48:27.100Z,21.51
2017-06-28T01:50:54.603Z,21.49
2017-06-28T01:53:22.175Z,21.52
2017-06-28T01:55:49.683Z,21.57
2017-06-28T01:58:17.255Z,21.61
2017-06-28T02:00:44.759Z,21.56
2017-06-28T02:03:12.280Z,21.55
2017-06-28T02:05:39.807Z,21.58
2017-06-28T02:08:07.321Z,21.61
2017-06-28T02:10:34.867Z,21.57
2017-06-28T02:13:02.375Z,21.61
2017-06-28T02:15:29.904Z,21.57
2017-06-28T02:17:57.466Z,21.59
2017-06-28T02:20:25.004Z,21.57
2017-06-28T02:22:52.521Z,21.66
2017-06-28T02:25:20.051Z,21.64
2017-06-28T02:27:47.560Z,21.67
2017-06-28T02:30:15.096Z,21.58
2017-06-28T02:32:42.614Z,21.62
2017-06-28T02:35:10.198Z,21.61
2017-06-28T02:37:37.659Z,21.59
2017-06-28T02:40:05.165Z,21.61
2017-06-28T02:42:32.712Z,21.67
2017-06-28T02:45:00.223Z,21.64
2017-06-28T02:47:27.834Z,21.65
2017-06-28T02:49:55.359Z,21.69
2017-06-28T02:52:22.903Z,21.67
2017-06-28T02:54:50.418Z,21.75
2017-06-28T02:57:18.210Z,21.72
2017-06-28T02:59:45.724Z,21.69
2017-06-28T03:02:13.267Z,21.69
2017-06-28T03:04:40.787Z,21.69
2017-06-28T03:07:20.122Z,21.72
2017-06-28T03:09:47.631Z,21.72
2017-06-28T03:12:15.171Z,21.68
2017-06-28T03:14:42.687Z,21.70
2017-06-28T03:17:10.215Z,21.64
2017-06-28T03:19:37.734Z,21.67
2017-06-28T03:22:05.299Z,21.70
2017-06-28T03:24:32.809Z,21.74
2017-06-28T03:27:00.333Z,21.70
2017-06-28T03:29:27.875Z,21.71
2017-06-28T03:31:55.395Z,21.61
2017-06-28T03:34:22.987Z,21.68
2017-06-28T03:36:50.515Z,21.68
2017-06-28T03:39:18.055Z,21.59
2017-06-28T03:41:45.566Z,21.60
2017-06-28T03:44:13.136Z,21.51
2017-06-28T03:46:40.666Z,21.43
2017-06-28T03:49:08.195Z,21.35
2017-06-28T03:51:35.714Z,21.26
2017-06-28T03:54:03.248Z,21.18
2017-06-28T03:56:30.767Z,21.21
2017-06-28T03:58:58.310Z,21.19
2017-06-28T04:01:25.811Z,21.14
2017-06-28T04:03:53.351Z,21.13
2017-06-28T04:06:20.879Z,21.13
2017-06-28T04:08:48.404Z,21.21
2017-06-28T04:11:15.919Z,21.10
2017-06-28T04:13:43.457Z,21.10
2017-06-28T04:16:11.006Z,21.07
2017-06-28T04:18:38.568Z,21.05
2017-06-28T04:21:06.088Z,21.04
2017-06-28T04:23:33.682Z,20.99
2017-06-28T04:26:01.268Z,21.02
2017-06-28T04:28:28.795Z,20.97
2017-06-28T04:30:56.451Z,20.85
2017-06-28T04:33:23.992Z,20.76
2017-06-28T04:35:51.639Z,20.79
2017-06-28T04:38:19.175Z,20.65
2017-06-28T04:40:46.736Z,20.58
2017-06-28T04:43:14.287Z,20.48
2017-06-28T04:45:41.838Z,20.39
2017-06-28T04:48:09.339Z,20.37
2017-06-28T04:50:36.892Z,20.28
2017-06-28T04:53:04.415Z,20.35
2017-06-28T04:55:31.984Z,20.41
2017-06-28T04:57:59.515Z,20.39
2017-06-28T05:00:27.083Z,20.33
2017-06-28T05:02:54.591Z,20.42
2017-06-28T05:05:22.106Z,20.47
2017-06-28T05:07:49.691Z,20.58
2017-06-28T05:10:17.231Z,20.54
2017-06-28T05:12:44.741Z,20.54
2017-06-28T05:15:12.283Z,20.62
2017-06-28T05:17:39.803Z,20.69
2017-06-28T05:20:07.351Z,20.70
2017-06-28T05:22:34.871Z,20.81
2017-06-28T05:25:02.505Z,20.75
2017-06-28T05:27:30.028Z,20.83
2017-06-28T05:29:57.582Z,20.82
2017-06-28T05:32:25.091Z,20.76
2017-06-28T05:34:52.637Z,20.71
2017-06-28T05:37:20.171Z,20.72
2017-06-28T05:39:47.722Z,20.76
2017-06-28T05:42:15.245Z,20.74
2017-06-28T05:44:42.755Z,20.74
2017-06-28T05:47:10.313Z,20.66
2017-06-28T05:49:37.815Z,20.62
2017-06-28T05:52:05.472Z,20.70
2017-06-28T05:54:33.004Z,20.90
2017-06-28T05:57:00.507Z,21.12
2017-06-28T05:59:28.055Z,21.11
2017-06-28T06:01:55.563Z,21.23
2017-06-28T06:04:23.124Z,21.16
2017-06-28T06:06:50.646Z,21.30
2017-06-28T06:09:18.218Z,21.15
2017-06-28T06:11:45.730Z,21.45
2017-06-28T06:14:13.287Z,21.51
2017-06-28T06:16:40.885Z,21.57
2017-06-28T06:19:08.435Z,21.49
2017-06-28T06:21:35.964Z,21.68
2017-06-28T06:24:03.632Z,21.59
2017-06-28T06:26:31.162Z,21.51
2017-06-28T06:28:58.715Z,21.61
2017-06-28T06:31:26.307Z,21.47
2017-06-28T06:33:53.805Z,21.50
2017-06-28T06:36:21.515Z,21.41
2017-06-28T06:38:49.036Z,21.52
2017-06-28T06:41:16.683Z,21.44
2017-06-28T06:43:44.210Z,21.50
2017-06-28T06:46:11.719Z,21.38
2017-06-28T06:48:39.323Z,21.40
2017-06-28T06:51:06.895Z,21.32
2017-06-28T06:53:34.455Z,21.24
2017-06-28T06:56:02.017Z,21.10
2017-06-28T06:58:29.628Z,21.03
2017-06-28T07:00:57.172Z,21.17
2017-06-28T07:03:24.822Z,21.19
2017-06-28T07:05:52.397Z,21.27
2017-06-28T07:08:19.939Z,21.23
2017-06-28T07:10:47.494Z,21.24
2017-06-28T07:13:15.006Z,21.07
2017-06-28T07:15:42.604Z,21.26
2017-06-28T07:18:10.116Z,21.22
2017-06-28T07:20:37.675Z,21.17
2017-06-28T07:23:05.192Z,21.18
2017-06-28T07:25:32.885Z,21.05
2017-06-28T07:28:00.395Z,21.04
2017-06-28T07:30:27.911Z,21.01
2017-06-28T07:32:55.848Z,20.87
2017-06-28T07:35:23.414Z,20.95
2017-06-28T07:37:51.055Z,20.96
2017-06-28T07:40:18.658Z,20.96
2017-06-28T07:42:46.206Z,21.05
2017-06-28T07:45:13.732Z,21.02
2017-06-28T07:47:41.327Z,20.92
2017-06-28T07:50:08.839Z,20.97
2017-06-28T07:52:36.514Z,21.02
2017-06-28T07:55:04.023Z,20.95
2017-06-28T07:57:31.529Z,20.90
2017-06-28T07:59:59.087Z,21.04
2017-06-28T08:02:26.666Z,21.07
2017-06-28T08:04:54.307Z,21.04
2017-06-28T08:07:21.832Z,21.08
2017-06-28T08:09:49.387Z,20.96
2017-06-28T08:12:16.931Z,21.08
2017-06-28T08:14:44.483Z,21.10
2017-06-28T08:17:12.002Z,21.00
2017-06-28T08:19:39.658Z,20.96
2017-06-28T08:22:07.187Z,20.99
2017-06-28T08:24:34.691Z,20.94
2017-06-28T08:27:02.239Z,21.09
2017-06-28T08:29:29.764Z,21.11
2017-06-28T08:31:57.323Z,21.27
2017-06-28T08:34:24.843Z,21.42
2017-06-28T08:36:52.472Z,21.64
2017-06-28T08:39:19.995Z,21.66
2017-06-28T08:41:47.577Z,21.72
2017-06-28T08:44:15.123Z,21.80
2017-06-28T08:46:42.772Z,21.65
2017-06-28T08:49:10.316Z,21.72
2017-06-28T08:51:37.827Z,21.82
2017-06-28T08:54:05.413Z,21.75
2017-06-28T08:56:32.948Z,21.77
2017-06-28T08:59:00.500Z,21.72
2017-06-28T09:01:28.011Z,21.61
2017-06-28T09:03:56.095Z,21.80
2017-06-28T09:06:23.597Z,21.96
2017-06-28T09:08:51.143Z,22.03
2017-06-28T09:11:18.665Z,22.14
2017-06-28T09:13:46.316Z,22.32
2017-06-28T09:16:13.839Z,22.32
2017-06-28T09:18:41.349Z,22.39
2017-06-28T09:21:08.914Z,22.56
2017-06-28T09:23:36.427Z,22.78
2017-06-28T09:26:03.987Z,22.60
2017-06-28T09:28:31.540Z,22.63
2017-06-28T09:30:59.079Z,22.59
2017-06-28T09:33:26.596Z,22.64
2017-06-28T09:35:54.152Z,22.68
2017-06-28T09:38:21.691Z,22.58
2017-06-28T09:40:49.352Z,22.55
2017-06-28T09:43:16.916Z,22.53
2017-06-28T09:45:44.477Z,22.57
2017-06-28T09:48:12.038Z,22.67
2017-06-28T09:50:39.559Z,22.66
2017-06-28T09:53:07.161Z,22.69
2017-06-28T09:55:34.697Z,22.55
2017-06-28T09:58:02.371Z,22.47
2017-06-28T10:00:29.909Z,22.54
2017-06-28T10:02:57.573Z,22.69
2017-06-28T10:05:25.080Z,22.73
2017-06-28T10:07:52.641Z,22.50
2017-06-28T10:10:20.160Z,22.38
2017-06-28T10:12:47.827Z,22.53
2017-06-28T10:15:15.379Z,22.63
2017-06-28T10:17:42.913Z,22.83
2017-06-28T10:20:10.480Z,22.96
2017-06-28T10:22:38.025Z,23.22
2017-06-28T10:25:05.623Z,23.37
2017-06-28T10:27:33.139Z,23.54
2017-06-28T10:30:00.682Z,23.66
2017-06-28T10:32:28.198Z,23.71
2017-06-28T10:34:55.735Z,23.77
2017-06-28T10:37:23.295Z,23.65
2017-06-28T10:39:50.856Z,23.45
2017-06-28T10:42:18.450Z,23.82
2017-06-28T10:44:46.117Z,23.56
2017-06-28T10:47:13.709Z,23.52
2017-06-28T10:49:41.270Z,23.62
2017-06-28T10:52:08.847Z,23.59
2017-06-28T10:54:36.380Z,23.76
2017-06-28T10:57:03.935Z,23.74
2017-06-28T10:59:31.439Z,23.93
2017-06-28T11:01:58.975Z,24.02
2017-06-28T11:04:26.495Z,23.95
2017-06-28T11:06:54.039Z,23.92
2017-06-28T11:09:21.586Z,23.92
2017-06-28T11:11:49.107Z,24.03
2017-06-28T11:14:16.660Z,24.04
2017-06-28T11:16:44.362Z,24.11
2017-06-28T11:19:11.919Z,24.29
2017-06-28T11:21:39.431Z,24.48
2017-06-28T11:24:07.083Z,24.39
2017-06-28T11:26:34.603Z,24.26
2017-06-28T11:29:02.119Z,24.33
2017-06-28T11:31:29.667Z,24.41
2017-06-28T11:33:57.189Z,24.45
2017-06-28T11:36:24.948Z,24.31
2017-06-28T11:38:52.462Z,24.15
2017-06-28T11:41:19.984Z,24.07
2017-06-28T11:43:47.537Z,23.92
2017-06-28T11:46:15.071Z,23.76
2017-06-28T11:48:42.706Z,23.80
2017-06-28T11:51:10.283Z,23.72
2017-06-28T11:53:37.918Z,23.77
2017-06-28T11:56:05.447Z,23.74
2017-06-28T11:58:32.954Z,24.05
2017-06-28T12:01:00.536Z,24.43
2017-06-28T12:03:28.052Z,24.52
2017-06-28T12:05:55.584Z,24.13
2017-06-28T12:08:23.091Z,23.91
2017-06-28T12:10:50.655Z,22.43
2017-06-28T12:13:19.144Z,21.54
2017-06-28T12:15:46.691Z,20.36
2017-06-28T12:18:14.199Z,20.00
2017-06-28T12:20:41.718Z,19.62
2017-06-28T12:23:09.259Z,19.43
2017-06-28T12:25:36.804Z,19.45
2017-06-28T12:28:04.366Z,19.35
2017-06-28T12:30:31.876Z,19.29
2017-06-28T12:32:59.636Z,19.36
2017-06-28T12:35:27.231Z,19.40
2017-06-28T12:37:54.739Z,19.42
2017-06-28T12:40:22.291Z,19.46
2017-06-28T12:42:49.815Z,19.37
2017-06-28T12:45:17.422Z,19.37
2017-06-28T12:47:45.000Z,19.31
2017-06-28T12:50:12.546Z,19.47
2017-06-28T12:52:40.093Z,19.60
2017-06-28T12:55:07.776Z,19.66
2017-06-28T12:57:35.291Z,19.83
2017-06-28T13:00:02.883Z,19.92
2017-06-28T13:02:30.504Z,20.02
2017-06-28T13:04:58.028Z,20.23
2017-06-28T13:07:25.586Z,20.42
2017-06-28T13:09:53.112Z,20.51
2017-06-28T13:12:20.755Z,20.67
2017-06-28T13:14:48.284Z,20.84
2017-06-28T13:17:15.808Z,20.96
2017-06-28T13:19:43.375Z,21.09
2017-06-28T13:22:10.911Z,21.11
2017-06-28T13:24:38.471Z,21.08
2017-06-28T13:27:05.990Z,21.03
2017-06-28T13:29:33.531Z,21.01
2017-06-28T13:32:01.038Z,21.04
2017-06-28T13:34:28.599Z,21.02
2017-06-28T13:36:56.179Z,21.17
2017-06-28T13:39:23.819Z,21.26
2017-06-28T13:41:51.326Z,21.12
2017-06-28T13:44:18.847Z,21.22
2017-06-28T13:46:46.387Z,21.22
2017-06-28T13:49:13.911Z,21.39
2017-06-28T13:51:41.456Z,21.52
2017-06-28T13:54:08.993Z,21.73
2017-06-28T13:56:36.559Z,21.96
2017-06-28T13:59:04.060Z,22.05
2017-06-28T14:01:31.755Z,22.09
2017-06-28T14:03:59.272Z,21.96
2017-06-28T14:06:26.796Z,21.97
2017-06-28T14:08:54.372Z,21.96
2017-06-28T14:11:21.895Z,21.85
2017-06-28T14:13:49.491Z,21.42
2017-06-28T14:16:17.040Z,21.09
2017-06-28T14:18:44.711Z,20.73
2017-06-28T14:21:12.295Z,20.39
2017-06-28T14:23:40.063Z,20.21
2017-06-28T14:26:07.585Z,20.26
2017-06-28T14:28:35.116Z,20.48
2017-06-28T14:31:02.679Z,20.54
2017-06-28T14:33:30.203Z,20.82
2017-06-28T14:35:57.771Z,20.83
2017-06-28T14:38:25.306Z,21.07
2017-06-28T14:40:52.972Z,21.15
2017-06-28T14:43:20.472Z,20.76
2017-06-28T14:45:47.980Z,21.12
2017-06-28T14:48:15.547Z,21.60
2017-06-28T14:50:43.047Z,21.70
2017-06-28T14:53:10.599Z,22.05
2017-06-28T14:55:38.109Z,22.04
2017-06-28T14:58:05.644Z,21.92
2017-06-28T15:00:33.158Z,21.80
2017-06-28T15:03:00.825Z,21.65
2017-06-28T15:05:28.339Z,21.51
2017-06-28T15:07:55.855Z,21.59
2017-06-28T15:10:23.448Z,21.63
2017-06-28T15:12:50.956Z,21.78
2017-06-28T15:15:18.511Z,21.96
2017-06-28T15:17:46.039Z,22.95
2017-06-28T15:20:13.639Z,23.24
2017-06-28T15:22:41.180Z,23.21
2017-06-28T15:25:08.847Z,23.08
2017-06-28T15:27:36.349Z,22.28
2017-06-28T15:30:03.869Z,22.25
2017-06-28T15:32:31.415Z,22.36
2017-06-28T15:34:58.951Z,22.32
2017-06-28T15:37:26.479Z,22.58
2017-06-28T15:39:54.055Z,22.83
2017-06-28T15:42:21.578Z,22.94
2017-06-28T15:44:49.114Z,22.68
2017-06-28T15:47:16.691Z,22.18
2017-06-28T15:49:44.207Z,21.99
2017-06-28T15:52:11.756Z,21.83
2017-06-28T15:54:39.230Z,21.88
2017-06-28T15:57:06.849Z,21.90
2017-06-28T15:59:34.383Z,21.91
2017-06-28T16:02:01.939Z,22.04
2017-06-28T16:04:29.459Z,22.07
2017-06-28T16:06:56.983Z,22.40
2017-06-28T16:09:24.519Z,22.91
2017-06-28T16:11:52.034Z,23.32
2017-06-28T16:14:19.596Z,23.48
2017-06-28T16:16:47.103Z,23.66
2017-06-28T16:19:14.708Z,23.69
2017-06-28T16:21:42.307Z,23.74
2017-06-28T16:24:09.869Z,23.65
2017-06-28T16:26:37.380Z,23.79
2017-06-28T16:29:04.987Z,23.33
2017-06-28T16:31:32.535Z,23.33
2017-06-28T16:34:00.094Z,23.98
2017-06-28T16:36:27.619Z,23.81
2017-06-28T16:38:55.135Z,23.90
2017-06-28T16:41:22.669Z,24.12
2017-06-28T16:43:50.191Z,24.08
2017-06-28T16:46:17.759Z,24.09
2017-06-28T16:48:45.267Z,24.08
2017-06-28T16:51:12.828Z,24.37
2017-06-28T16:53:40.343Z,24.66
2017-06-28T16:56:07.898Z,24.51
2017-06-28T16:58:35.419Z,24.20
2017-06-28T17:01:03.102Z,24.47
2017-06-28T17:03:30.638Z,24.27
2017-06-28T17:05:58.153Z,24.25
2017-06-28T17:08:25.705Z,24.43
2017-06-28T17:10:53.203Z,24.20
2017-06-28T17:13:20.748Z,24.34
2017-06-28T17:15:48.256Z,24.61
2017-06-28T17:18:15.799Z,24.45
2017-06-28T17:20:43.356Z,24.89
2017-06-28T17:23:11.055Z,25.06
2017-06-28T17:25:38.571Z,24.77
2017-06-28T17:28:06.107Z,24.97
2017-06-28T17:30:33.678Z,25.31
2017-06-28T17:33:01.204Z,25.47
2017-06-28T17:35:28.759Z,25.58
2017-06-28T17:37:56.413Z,25.10
2017-06-28T17:40:23.959Z,25.53
2017-06-28T17:42:51.490Z,26.24
2017-06-28T17:45:19.408Z,25.78
2017-06-28T17:47:46.976Z,25.70
2017-06-28T17:50:14.483Z,25.70
2017-06-28T17:52:42.091Z,25.21
2017-06-28T17:55:09.622Z,25.32
2017-06-28T17:57:37.179Z,25.44
2017-06-28T18:00:04.701Z,25.91
2017-06-28T18:02:32.347Z,25.29
2017-06-28T18:04:59.871Z,24.83
2017-06-28T18:07:27.455Z,24.78
2017-06-28T18:09:55.024Z,24.83
2017-06-28T18:12:22.536Z,24.79
2017-06-28T18:14:50.096Z,24.95
2017-06-28T18:17:17.711Z,24.96
2017-06-28T18:19:45.288Z,24.82
2017-06-28T18:22:12.800Z,24.97
2017-06-28T18:24:40.415Z,25.12
2017-06-28T18:27:07.928Z,24.93
2017-06-28T18:29:35.483Z,25.08
2017-06-28T18:32:03.101Z,24.88
2017-06-28T18:34:30.674Z,25.08
2017-06-28T18:36:58.271Z,24.96
2017-06-28T18:39:25.825Z,25.14
2017-06-28T18:41:53.385Z,24.91
2017-06-28T18:44:21.002Z,24.78
2017-06-28T18:46:48.531Z,24.57
2017-06-28T18:49:16.192Z,24.75
2017-06-28T18:51:43.766Z,25.28
2017-06-28T18:54:11.292Z,24.73
2017-06-28T18:56:38.841Z,24.69
2017-06-28T18:59:06.428Z,24.39
2017-06-28T19:01:34.014Z,24.28
2017-06-28T19:04:01.553Z,24.48
2017-06-28T19:06:29.208Z,24.64
2017-06-28T19:08:56.735Z,24.50
2017-06-28T19:11:24.262Z,24.38
2017-06-28T19:13:51.828Z,24.22
2017-06-28T19:16:19.355Z,24.47
2017-06-28T19:18:46.927Z,24.31
2017-06-28T19:21:14.453Z,24.54
2017-06-28T19:23:42.015Z,24.66
2017-06-28T19:26:09.527Z,24.25
2017-06-28T19:28:37.192Z,23.70
2017-06-28T19:31:04.728Z,23.39
2017-06-28T19:33:32.270Z,23.33
2017-06-28T19:35:59.840Z,23.19
2017-06-28T19:38:27.380Z,23.31
2017-06-28T19:40:54.957Z,23.28
2017-06-28T19:43:22.618Z,23.69
2017-06-28T19:45:50.201Z,23.21
2017-06-28T19:48:17.766Z,22.71
2017-06-28T19:50:45.635Z,22.43
2017-06-28T19:53:13.168Z,22.45
2017-06-28T19:55:40.706Z,22.70
2017-06-28T19:58:08.264Z,22.95
2017-06-28T20:00:35.780Z,23.18
2017-06-28T20:03:03.365Z,23.07
2017-06-28T20:05:30.896Z,22.45
2017-06-28T20:07:58.461Z,22.14
2017-06-28T20:10:26.052Z,22.07
2017-06-28T20:12:53.632Z,21.97
2017-06-28T20:15:21.168Z,21.92
2017-06-28T20:17:48.871Z,21.80
2017-06-28T20:20:16.392Z,21.82
2017-06-28T20:22:43.993Z,21.77
2017-06-28T20:25:11.553Z,21.76
2017-06-28T20:27:39.104Z,21.77
2017-06-28T20:30:06.675Z,21.87
2017-06-28T20:32:34.200Z,21.91
2017-06-28T20:35:01.779Z,21.78
2017-06-28T20:37:29.413Z,21.74
2017-06-28T20:39:57.242Z,21.91
2017-06-28T20:42:24.758Z,21.94
2017-06-28T20:44:52.397Z,21.93
2017-06-28T20:47:19.924Z,22.02
2017-06-28T20:49:47.447Z,21.85
2017-06-28T20:52:15.007Z,21.94
2017-06-28T20:54:42.543Z,22.08
2017-06-28T20:57:10.103Z,21.97
2017-06-28T20:59:37.620Z,22.09
2017-06-28T21:02:05.159Z,22.40
2017-06-28T21:04:32.675Z,22.48
2017-06-28T21:07:00.434Z,22.34
2017-06-28T21:09:27.977Z,22.20
2017-06-28T21:11:55.483Z,22.38
2017-06-28T21:14:23.033Z,22.22
2017-06-28T21:16:50.547Z,22.35
2017-06-28T21:19:18.091Z,22.29
2017-06-28T21:21:45.571Z,22.44
2017-06-28T21:24:13.154Z,22.67
2017-06-28T21:26:40.675Z,22.46
2017-06-28T21:29:08.723Z,22.52
2017-06-28T21:31:36.250Z,22.44
2017-06-28T21:34:03.774Z,22.42
2017-06-28T21:36:31.325Z,22.28
2017-06-28T21:38:58.895Z,22.27
2017-06-28T21:41:26.450Z,22.28
2017-06-28T21:43:54.018Z,22.33
2017-06-28T21:46:21.595Z,22.11
2017-06-28T21:48:49.110Z,22.12
2017-06-28T21:51:16.676Z,22.16
2017-06-28T21:53:44.228Z,21.99
2017-06-28T21:56:11.739Z,21.91
2017-06-28T21:58:39.328Z,22.01
2017-06-28T22:01:06.875Z,22.02
2017-06-28T22:03:34.429Z,22.07
2017-06-28T22:06:01.934Z,21.93
2017-06-28T22:08:29.513Z,21.92
2017-06-28T22:10:57.064Z,21.93
2017-06-28T22:13:24.992Z,21.84
2017-06-28T22:15:52.559Z,21.77
2017-06-28T22:18:32.784Z,21.26
2017-06-28T22:21:00.615Z,20.70
2017-06-28T22:23:28.135Z,20.89
2017-06-28T22:25:55.743Z,21.05
2017-06-28T22:28:23.351Z,21.11
2017-06-28T22:30:50.992Z,21.22
2017-06-28T22:33:18.524Z,20.99
2017-06-28T22:35:47.970Z,20.68
2017-06-28T22:38:17.630Z,20.69
2017-06-28T22:40:49.412Z,20.57
2017-06-28T22:43:17.006Z,20.86
2017-06-28T22:45:44.523Z,20.92
2017-06-28T22:48:12.142Z,20.71
2017-06-28T22:50:39.646Z,20.86
2017-06-28T22:53:07.218Z,21.00
2017-06-28T22:55:34.735Z,20.56
2017-06-28T22:58:02.283Z,20.61
2017-06-28T23:00:29.809Z,20.47
2017-06-28T23:02:57.396Z,20.62
2017-06-28T23:05:24.905Z,20.69
2017-06-28T23:07:52.631Z,20.82
2017-06-28T23:10:20.143Z,20.73
2017-06-28T23:12:47.655Z,20.94
2017-06-28T23:15:15.233Z,20.95
2017-06-28T23:17:42.752Z,20.54
2017-06-28T23:20:10.306Z,20.81
2017-06-28T23:22:37.811Z,20.81
2017-06-28T23:25:05.382Z,20.68
2017-06-28T23:27:32.923Z,21.04
2017-06-28T23:30:00.436Z,21.05
2017-06-28T23:32:27.995Z,20.84
2017-06-28T23:34:55.502Z,20.88
2017-06-28T23:37:23.051Z,20.88
2017-06-28T23:39:50.574Z,21.03
2017-06-28T23:42:18.139Z,21.01
2017-06-28T23:44:45.654Z,20.72
2017-06-28T23:47:13.231Z,20.55
2017-06-28T23:49:40.804Z,20.10
2017-06-28T23:52:08.306Z,19.84
2017-06-28T23:54:35.959Z,19.76
2017-06-28T23:57:03.534Z,19.76
2017-06-28T23:59:31.195Z,19.74
